Impacts METAR Board INFO
IDs:

KORD - Chicago/O'Hare Intl, IL, US

Updated at: 1932 UTC 17 Dec 2017
Potential Impact None Slight Moderate High
Time17/07Z 17/08Z 17/09Z 17/10Z 17/11Z 17/12Z 17/13Z 17/14Z 17/15Z 17/16Z 17/17Z 17/18Z 17/19Z
VIS6 6 4 4 4 4 4 4 4 4 4 5 6
CIG-- -- -- -- 250 210 210 8 8 8 8 120 250
CoverSCTSCTSCTSCTBKNBKNBKNOVCOVCOVCOVCOVCBKN
FltCatVFRVFRMVFRMVFRMVFRMVFRMVFRIFRIFRIFRIFRMVFRVFR
WXBRBRBRBRBRBRBRBRBRBRBRHZHZ
WDir1010302010204060404030200
WSpd5 4 3 6 5 6 7 5 8 6 5 4 0
WGst-- -- -- -- -- -- -- -- -- -- -- -- --
Raw hourly METARs
KORD 170651Z 01005KT 6SM BR SCT250 00/M01 A3005 RMK AO2 SLP181 T00001011
KORD 170751Z 01004KT 6SM BR SCT250 00/M02 A3005 RMK AO2 SLP181 I1000 T00001017
KORD 170851Z 03003KT 4SM BR SCT250 M02/M02 A3007 RMK AO2 SLP187 I1000 I3000 T10171022 53008
KORD 170951Z 02006KT 4SM BR SCT250 01/M01 A3005 RMK AO2 SLP181 T00061006
KORD 171051Z 01005KT 4SM BR BKN250 01/M01 A3006 RMK AO2 SLP187 T00061011
KORD 171151Z 02006KT 4SM BR BKN210 02/00 A3006 RMK AO2 SLP185 I6000 T00170000 10017 21017 51003
KORD 171251Z 04007KT 4SM BR FEW008 BKN210 02/00 A3005 RMK AO2 SLP181 T00220000
KORD 171351Z 06005KT 4SM BR OVC008 02/01 A3006 RMK AO2 SLP185 T00220006
KORD 171451Z 04008KT 4SM BR OVC008 03/01 A3005 RMK AO2 SLP181 T00280006 58004
KORD 171551Z 04006KT 4SM BR OVC008 03/01 A3006 RMK AO2 SLP184 T00280006
KORD 171651Z 03005KT 4SM BR BKN008 BKN110 OVC210 03/01 A3004 RMK AO2 SLP179 T00280011
KORD 171751Z 02004KT 5SM HZ SCT008 BKN120 OVC210 04/01 A3002 RMK AO2 SLP171 T00390011 10039 20011 58010
KORD 171851Z 00000KT 6SM HZ FEW010 BKN250 04/01 A3000 RMK AO2 SLP164 T00440011